createdAt,value
2022-09-26T00:01:42.918Z,9.30
2022-09-26T00:04:23.221Z,9.50
2022-09-26T00:06:54.464Z,9.60
2022-09-26T00:09:24.283Z,8.80
2022-09-26T00:11:52.522Z,9.00
2022-09-26T00:14:24.546Z,8.90
2022-09-26T00:16:53.629Z,8.70
2022-09-26T00:19:22.363Z,8.80
2022-09-26T00:21:50.304Z,9.90
2022-09-26T00:24:20.462Z,9.40
2022-09-26T00:26:48.485Z,9.70
2022-09-26T00:29:17.312Z,9.80
2022-09-26T00:31:46.320Z,9.20
2022-09-26T00:34:17.730Z,9.40
2022-09-26T00:36:45.804Z,8.80
2022-09-26T00:39:15.814Z,7.70
2022-09-26T00:41:44.581Z,8.80
2022-09-26T00:44:41.531Z,8.70
2022-09-26T00:47:40.612Z,8.00
2022-09-26T00:50:22.544Z,8.70
2022-09-26T00:53:00.356Z,8.50
2022-09-26T00:55:35.237Z,7.90
2022-09-26T00:58:18.527Z,7.90
2022-09-26T01:00:49.452Z,7.70
2022-09-26T01:03:19.845Z,7.30
2022-09-26T01:05:49.033Z,7.60
2022-09-26T01:08:20.979Z,7.60
2022-09-26T01:10:49.708Z,8.50
2022-09-26T01:13:17.801Z,8.70
2022-09-26T01:15:45.918Z,8.40
2022-09-26T01:18:14.192Z,8.20
2022-09-26T01:21:15.286Z,8.10
2022-09-26T01:24:20.228Z,8.30
2022-09-26T01:27:01.452Z,7.70
2022-09-26T01:29:41.434Z,7.80
2022-09-26T01:32:39.715Z,8.50
2022-09-26T01:35:26.120Z,8.60
2022-09-26T01:38:09.363Z,8.80
2022-09-26T01:41:02.221Z,9.10
2022-09-26T01:43:59.502Z,8.30
2022-09-26T01:47:06.162Z,8.60
2022-09-26T01:49:55.317Z,9.10
2022-09-26T01:52:59.769Z,8.60
2022-09-26T01:55:32.584Z,8.20
2022-09-26T01:58:11.534Z,8.50
2022-09-26T02:00:43.490Z,9.40
2022-09-26T02:03:16.128Z,9.30
2022-09-26T02:05:49.651Z,9.30
2022-09-26T02:08:44.414Z,8.90
2022-09-26T02:11:19.983Z,9.20
2022-09-26T02:14:05.616Z,11.00
2022-09-26T02:16:46.817Z,11.80
2022-09-26T02:19:20.375Z,11.80
2022-09-26T02:21:49.356Z,10.80
2022-09-26T02:24:18.927Z,9.50
2022-09-26T02:26:47.713Z,11.00
2022-09-26T02:29:16.960Z,9.70
2022-09-26T02:31:52.154Z,11.10
2022-09-26T02:34:20.769Z,12.10
2022-09-26T02:36:49.721Z,13.60
2022-09-26T02:39:18.377Z,13.80
2022-09-26T02:42:09.344Z,13.70
2022-09-26T02:44:55.646Z,14.70
2022-09-26T02:47:31.182Z,15.70
2022-09-26T02:49:59.876Z,16.10
2022-09-26T02:53:01.611Z,15.30
2022-09-26T02:55:51.917Z,15.80
2022-09-26T02:58:59.824Z,14.80
2022-09-26T03:01:36.430Z,11.10
2022-09-26T03:04:14.962Z,11.70
2022-09-26T03:06:49.132Z,13.80
2022-09-26T03:09:19.812Z,15.70
2022-09-26T03:11:49.367Z,15.40
2022-09-26T03:14:21.250Z,16.70
2022-09-26T03:16:52.214Z,16.90
2022-09-26T03:19:35.572Z,17.30
2022-09-26T03:22:04.157Z,17.10
2022-09-26T03:24:35.855Z,15.90
2022-09-26T03:27:06.214Z,15.80
2022-09-26T03:29:36.183Z,16.00
2022-09-26T03:32:05.960Z,15.70
2022-09-26T03:34:34.402Z,16.60
2022-09-26T03:37:02.412Z,16.80
2022-09-26T03:39:30.967Z,18.20
2022-09-26T03:42:10.069Z,18.80
2022-09-26T03:44:40.401Z,19.10
2022-09-26T03:47:08.942Z,19.40
2022-09-26T03:49:40.910Z,18.90
2022-09-26T03:52:12.915Z,18.90
2022-09-26T03:54:41.292Z,17.20
2022-09-26T03:57:13.368Z,16.20
2022-09-26T03:59:46.953Z,13.80
2022-09-26T04:02:16.725Z,14.00
2022-09-26T04:04:45.459Z,13.90
2022-09-26T04:07:15.789Z,12.90
2022-09-26T04:09:43.708Z,12.40
2022-09-26T04:12:12.145Z,13.10
2022-09-26T04:14:43.640Z,12.80
2022-09-26T04:17:13.391Z,13.70
2022-09-26T04:19:44.428Z,13.80
2022-09-26T04:22:13.224Z,13.40
2022-09-26T04:24:43.092Z,14.00
2022-09-26T04:27:12.340Z,14.50
2022-09-26T04:29:40.567Z,14.00
2022-09-26T04:32:31.882Z,13.50
2022-09-26T04:35:21.389Z,13.10
2022-09-26T04:37:50.891Z,16.20
2022-09-26T04:40:19.156Z,14.50
2022-09-26T04:42:59.089Z,13.30
2022-09-26T04:45:27.560Z,15.50
2022-09-26T04:47:55.705Z,14.00
2022-09-26T04:50:29.678Z,14.00
2022-09-26T04:53:12.276Z,14.20
2022-09-26T04:55:49.826Z,14.00
2022-09-26T04:58:17.971Z,14.10
2022-09-26T05:00:50.004Z,13.90
2022-09-26T05:03:29.840Z,14.60
2022-09-26T05:05:58.351Z,13.40
2022-09-26T05:08:31.800Z,14.20
2022-09-26T05:11:00.043Z,15.10
2022-09-26T05:13:30.180Z,15.00
2022-09-26T05:16:03.188Z,14.90
2022-09-26T05:18:31.647Z,14.10
2022-09-26T05:21:04.190Z,17.30
2022-09-26T05:23:50.779Z,18.60
2022-09-26T05:26:27.317Z,15.70
2022-09-26T05:29:02.771Z,17.20
2022-09-26T05:31:43.898Z,16.90
2022-09-26T05:34:19.169Z,15.40
2022-09-26T05:36:48.327Z,14.60
2022-09-26T05:39:37.853Z,14.60
2022-09-26T05:42:10.142Z,15.90
2022-09-26T05:44:39.974Z,18.90
2022-09-26T05:47:09.070Z,15.10
2022-09-26T05:49:37.539Z,15.00
2022-09-26T05:52:08.456Z,15.80
2022-09-26T05:54:36.681Z,14.50
2022-09-26T05:57:09.867Z,13.30
2022-09-26T05:59:53.544Z,13.70
2022-09-26T06:02:27.795Z,12.60
2022-09-26T06:05:18.231Z,13.60
2022-09-26T06:07:53.079Z,14.30
2022-09-26T06:10:53.840Z,17.10
2022-09-26T06:13:23.218Z,16.10
2022-09-26T06:15:53.339Z,20.40
2022-09-26T06:18:22.708Z,17.30
2022-09-26T06:20:52.315Z,16.00
2022-09-26T06:23:23.344Z,18.00
2022-09-26T06:25:51.765Z,21.90
2022-09-26T06:28:20.253Z,14.60
2022-09-26T06:30:48.887Z,23.30
2022-09-26T06:33:32.586Z,13.40
2022-09-26T06:36:15.980Z,14.50
2022-09-26T06:38:44.074Z,13.20
2022-09-26T06:41:17.717Z,15.60
2022-09-26T06:43:47.609Z,18.00
2022-09-26T06:46:34.489Z,16.30
2022-09-26T06:49:14.273Z,15.40
2022-09-26T06:51:49.037Z,16.30
2022-09-26T06:54:19.562Z,15.30
2022-09-26T06:56:48.569Z,19.40
2022-09-26T06:59:23.373Z,16.60
2022-09-26T07:02:10.751Z,14.10
2022-09-26T07:04:57.752Z,12.30
2022-09-26T07:07:41.933Z,12.30
2022-09-26T07:10:21.532Z,11.30
2022-09-26T07:13:11.612Z,11.00
2022-09-26T07:15:40.331Z,11.90
2022-09-26T07:18:35.099Z,12.50
2022-09-26T07:21:24.532Z,11.90
2022-09-26T07:24:14.056Z,11.70
2022-09-26T07:26:44.156Z,9.90
2022-09-26T07:29:12.653Z,10.30
2022-09-26T07:31:42.294Z,9.90
2022-09-26T07:34:18.692Z,9.50
2022-09-26T07:36:47.670Z,10.10
2022-09-26T07:39:19.538Z,10.50
2022-09-26T07:41:47.801Z,20.80
2022-09-26T07:47:24.336Z,12.70
2022-09-26T07:50:12.990Z,15.70
2022-09-26T07:53:04.933Z,11.10
2022-09-26T07:55:58.090Z,12.50
2022-09-26T07:58:57.549Z,10.50
2022-09-26T08:01:40.856Z,8.60
2022-09-26T08:04:27.598Z,20.50
2022-09-26T08:06:57.473Z,10.00
2022-09-26T08:09:26.638Z,10.00
2022-09-26T08:12:15.289Z,10.50
2022-09-26T08:15:01.860Z,12.00
2022-09-26T08:20:32.027Z,8.60
2022-09-26T08:23:06.468Z,8.90
2022-09-26T08:25:36.006Z,10.00
2022-09-26T08:28:21.918Z,10.50
2022-09-26T08:30:50.813Z,8.80
2022-09-26T08:33:21.917Z,8.30
2022-09-26T08:35:53.041Z,8.30
2022-09-26T08:38:43.007Z,7.10
2022-09-26T08:41:55.728Z,7.50
2022-09-26T08:45:28.581Z,13.80
2022-09-26T08:48:24.607Z,8.50
2022-09-26T08:51:13.360Z,9.00
2022-09-26T08:54:08.580Z,9.00
2022-09-26T08:56:44.256Z,9.50
2022-09-26T08:59:25.180Z,10.50
2022-09-26T09:01:57.479Z,9.00
2022-09-26T09:05:08.971Z,6.80
2022-09-26T09:07:41.450Z,8.00
2022-09-26T09:10:18.915Z,6.80
2022-09-26T09:13:18.270Z,6.10
2022-09-26T09:16:15.230Z,6.70
2022-09-26T09:19:52.098Z,6.60
2022-09-26T09:23:27.762Z,10.10
2022-09-26T09:29:32.640Z,7.60
2022-09-26T09:32:24.459Z,8.00
2022-09-26T09:35:17.606Z,8.00
2022-09-26T09:38:02.814Z,9.30
2022-09-26T09:41:21.006Z,7.60
2022-09-26T09:44:05.708Z,7.00
2022-09-26T09:46:43.210Z,7.40
2022-09-26T09:49:21.173Z,6.70
2022-09-26T09:52:09.102Z,6.80
2022-09-26T09:54:49.638Z,6.50
2022-09-26T09:57:41.293Z,6.50
2022-09-26T10:00:13.139Z,5.50
2022-09-26T10:03:01.789Z,5.70
2022-09-26T10:05:47.793Z,5.10
2022-09-26T10:08:32.090Z,5.00
2022-09-26T10:11:43.469Z,5.10
2022-09-26T10:14:40.485Z,5.50
2022-09-26T10:17:19.314Z,4.10
2022-09-26T10:20:59.950Z,3.90
2022-09-26T10:23:42.233Z,23.30
2022-09-26T10:26:25.509Z,5.00
2022-09-26T10:28:57.637Z,3.90
2022-09-26T10:31:49.318Z,3.80
2022-09-26T10:34:29.435Z,4.90
2022-09-26T10:37:12.103Z,4.40
2022-09-26T10:42:35.689Z,4.30
2022-09-26T10:45:16.099Z,4.80
2022-09-26T10:48:01.777Z,5.10
2022-09-26T10:50:52.012Z,5.30
2022-09-26T10:53:45.213Z,7.80
2022-09-26T10:56:23.631Z,5.40
2022-09-26T10:59:06.111Z,6.60
2022-09-26T11:01:48.021Z,7.30
2022-09-26T11:04:45.638Z,7.30
2022-09-26T11:07:39.642Z,9.70
2022-09-26T11:10:32.810Z,7.30
2022-09-26T11:13:43.777Z,8.10
2022-09-26T11:16:29.387Z,8.20
2022-09-26T11:19:29.707Z,7.60
2022-09-26T11:22:23.740Z,7.90
2022-09-26T11:25:16.060Z,8.70
2022-09-26T11:27:57.867Z,7.50
2022-09-26T11:30:48.882Z,7.60
2022-09-26T11:33:20.102Z,7.60
2022-09-26T11:36:17.021Z,8.10
2022-09-26T11:38:57.501Z,8.10
2022-09-26T11:41:52.395Z,8.40
2022-09-26T11:44:38.991Z,8.80
2022-09-26T11:47:38.580Z,10.50
2022-09-26T11:50:28.693Z,11.10
2022-09-26T11:53:21.473Z,11.10
2022-09-26T11:56:04.741Z,8.90
2022-09-26T11:59:17.460Z,9.80
2022-09-26T12:02:02.887Z,8.30
2022-09-26T12:05:14.687Z,8.10
2022-09-26T12:08:30.195Z,9.80
2022-09-26T12:11:18.738Z,9.40
2022-09-26T12:14:11.627Z,7.80
2022-09-26T12:16:50.265Z,8.10
2022-09-26T12:19:21.266Z,8.80
2022-09-26T12:22:28.761Z,9.00
2022-09-26T12:25:41.408Z,8.60
2022-09-26T12:28:35.401Z,9.70
2022-09-26T12:31:21.309Z,8.60
2022-09-26T12:33:55.509Z,8.50
2022-09-26T12:36:26.586Z,9.50
2022-09-26T12:39:15.316Z,8.40
2022-09-26T12:41:51.933Z,8.80
2022-09-26T12:44:37.058Z,9.00
2022-09-26T12:47:24.015Z,9.50
2022-09-26T12:50:17.166Z,13.40
2022-09-26T12:52:57.654Z,9.50
2022-09-26T12:55:27.973Z,10.80
2022-09-26T12:58:17.445Z,22.30
2022-09-26T13:01:18.964Z,14.90
2022-09-26T13:04:21.884Z,10.70
2022-09-26T13:07:18.351Z,10.50
2022-09-26T13:10:12.368Z,9.70
2022-09-26T13:12:55.066Z,11.00
2022-09-26T13:15:46.653Z,11.00
2022-09-26T13:18:52.627Z,9.40
2022-09-26T13:21:46.677Z,8.40
2022-09-26T13:24:25.512Z,8.40
2022-09-26T13:27:03.869Z,13.60
2022-09-26T13:29:38.088Z,8.60
2022-09-26T13:32:33.612Z,10.40
2022-09-26T13:35:16.907Z,12.90
2022-09-26T13:38:11.798Z,11.10
2022-09-26T13:40:45.878Z,9.80
2022-09-26T13:43:54.118Z,8.70
2022-09-26T13:47:06.114Z,8.80
2022-09-26T13:49:50.419Z,9.70
2022-09-26T13:52:56.526Z,9.50
2022-09-26T13:55:31.666Z,13.60
2022-09-26T13:58:21.030Z,9.70
2022-09-26T14:00:53.538Z,8.50
2022-09-26T14:03:23.768Z,8.60
2022-09-26T14:06:06.743Z,9.20
2022-09-26T14:08:58.046Z,9.00
2022-09-26T14:11:50.833Z,10.60
2022-09-26T14:14:29.427Z,11.30
2022-09-26T14:17:03.256Z,10.10
2022-09-26T14:19:39.604Z,12.20
2022-09-26T14:22:21.851Z,9.80
2022-09-26T14:24:52.451Z,13.30
2022-09-26T14:27:25.373Z,10.30
2022-09-26T14:30:29.346Z,10.50
2022-09-26T14:33:04.964Z,12.80
2022-09-26T14:35:35.981Z,10.10
2022-09-26T14:38:20.458Z,10.10
2022-09-26T14:40:58.100Z,11.70
2022-09-26T14:43:30.390Z,11.20
2022-09-26T14:46:06.490Z,10.80
2022-09-26T14:48:45.084Z,9.80
2022-09-26T14:51:16.589Z,10.50
2022-09-26T14:53:49.456Z,12.90
2022-09-26T14:56:29.870Z,13.10
2022-09-26T14:59:16.528Z,13.40
2022-09-26T15:01:46.589Z,13.70
2022-09-26T15:04:14.975Z,13.80
2022-09-26T15:06:47.608Z,15.50
2022-09-26T15:09:49.147Z,14.00
2022-09-26T15:12:26.143Z,17.70
2022-09-26T15:15:25.741Z,15.00
2022-09-26T15:17:59.617Z,12.30
2022-09-26T15:20:32.127Z,11.00
2022-09-26T15:23:03.066Z,10.70
2022-09-26T15:25:33.252Z,10.20
2022-09-26T15:28:02.639Z,9.60
2022-09-26T15:30:43.466Z,9.10
2022-09-26T15:33:19.948Z,10.60
2022-09-26T15:35:57.187Z,11.30
2022-09-26T15:38:26.358Z,10.60
2022-09-26T15:41:02.638Z,11.20
2022-09-26T15:43:36.924Z,10.50
2022-09-26T15:46:22.220Z,10.00
2022-09-26T15:51:30.242Z,9.40
2022-09-26T15:54:04.711Z,10.30
2022-09-26T15:56:39.573Z,11.80
2022-09-26T15:59:13.997Z,11.00
2022-09-26T16:01:45.366Z,11.70
2022-09-26T16:04:27.247Z,11.50
2022-09-26T16:06:57.670Z,10.10
2022-09-26T16:09:43.417Z,14.20
2022-09-26T16:12:30.674Z,10.20
2022-09-26T16:15:33.251Z,11.30
2022-09-26T16:18:01.815Z,10.70
2022-09-26T16:20:31.770Z,13.70
2022-09-26T16:23:06.775Z,12.40
2022-09-26T16:25:35.327Z,12.40
2022-09-26T16:28:08.884Z,12.00
2022-09-26T16:30:41.175Z,12.60
2022-09-26T16:33:15.340Z,10.00
2022-09-26T16:35:46.633Z,11.20
2022-09-26T16:38:15.331Z,11.40
2022-09-26T16:40:57.046Z,11.00
2022-09-26T16:43:31.734Z,11.90
2022-09-26T16:46:09.611Z,10.30
2022-09-26T16:48:50.042Z,10.50
2022-09-26T16:51:31.092Z,10.50
2022-09-26T16:54:08.718Z,10.80
2022-09-26T16:56:44.253Z,10.50
2022-09-26T16:59:17.706Z,11.20
2022-09-26T17:01:56.431Z,18.20
2022-09-26T17:04:29.036Z,19.00
2022-09-26T17:07:10.049Z,19.80
2022-09-26T17:09:41.610Z,19.30
2022-09-26T17:12:21.356Z,21.40
2022-09-26T17:14:56.707Z,19.10
2022-09-26T17:17:27.220Z,20.20
2022-09-26T17:19:59.521Z,19.70
2022-09-26T17:22:28.620Z,19.60
2022-09-26T17:24:58.220Z,19.20
2022-09-26T17:27:33.998Z,20.50
2022-09-26T17:30:05.169Z,21.30
2022-09-26T17:32:44.249Z,19.30
2022-09-26T17:35:18.576Z,22.50
2022-09-26T17:37:47.256Z,17.60
2022-09-26T17:40:19.858Z,14.60
2022-09-26T17:42:48.870Z,14.40
2022-09-26T17:45:18.599Z,14.00
2022-09-26T17:47:47.135Z,15.30
2022-09-26T17:50:27.192Z,13.80
2022-09-26T17:52:58.137Z,13.20
2022-09-26T17:55:28.475Z,12.80
2022-09-26T17:57:58.550Z,13.20
2022-09-26T18:00:32.139Z,12.40
2022-09-26T18:03:04.210Z,11.30
2022-09-26T18:05:36.997Z,12.60
2022-09-26T18:08:24.255Z,11.40
2022-09-26T18:10:57.590Z,12.80
2022-09-26T18:13:31.633Z,12.30
2022-09-26T18:16:01.063Z,11.50
2022-09-26T18:18:32.463Z,10.70
2022-09-26T18:21:04.287Z,11.10
2022-09-26T18:24:18.602Z,10.40
2022-09-26T18:26:51.010Z,11.00
2022-09-26T18:29:33.314Z,11.30
2022-09-26T18:32:03.724Z,11.10
2022-09-26T18:34:32.813Z,10.70
2022-09-26T18:37:01.679Z,10.60
2022-09-26T18:39:30.836Z,10.00
2022-09-26T18:42:03.675Z,10.10
2022-09-26T18:44:35.284Z,10.30
2022-09-26T18:47:08.530Z,10.20
2022-09-26T18:49:38.270Z,9.90
2022-09-26T18:52:15.464Z,10.50
2022-09-26T18:54:45.611Z,11.20
2022-09-26T18:57:33.714Z,10.10
2022-09-26T19:00:02.863Z,9.70
2022-09-26T19:02:38.614Z,10.30
2022-09-26T19:05:08.728Z,9.50
2022-09-26T19:07:37.883Z,9.30
2022-09-26T19:10:15.289Z,9.10
2022-09-26T19:12:44.376Z,9.70
2022-09-26T19:15:15.055Z,10.60
2022-09-26T19:17:43.698Z,10.50
2022-09-26T19:20:11.979Z,10.90
2022-09-26T19:22:40.559Z,11.00
2022-09-26T19:25:11.095Z,11.30
2022-09-26T19:27:47.057Z,10.30
2022-09-26T19:30:24.673Z,10.70
2022-09-26T19:32:58.939Z,10.50
2022-09-26T19:35:31.594Z,10.70
2022-09-26T19:38:01.157Z,9.90
2022-09-26T19:40:29.787Z,10.80
2022-09-26T19:42:59.980Z,10.60
2022-09-26T19:45:32.314Z,10.80
2022-09-26T19:48:02.066Z,11.20
2022-09-26T19:50:33.961Z,11.30
2022-09-26T19:53:04.872Z,11.90
2022-09-26T19:55:33.046Z,11.70
2022-09-26T19:58:07.061Z,11.20
2022-09-26T20:00:41.486Z,11.40
2022-09-26T20:03:35.652Z,13.00
2022-09-26T20:06:31.399Z,21.00
2022-09-26T20:09:01.743Z,21.80
2022-09-26T20:11:30.273Z,20.40
2022-09-26T20:14:16.890Z,20.30
2022-09-26T20:16:44.970Z,20.20
2022-09-26T20:19:39.442Z,21.10
2022-09-26T20:22:14.330Z,20.30
2022-09-26T20:24:43.902Z,21.10
2022-09-26T20:27:18.905Z,20.70
2022-09-26T20:30:14.337Z,20.70
2022-09-26T20:32:42.628Z,20.70
2022-09-26T20:35:14.964Z,19.40
2022-09-26T20:37:44.827Z,20.10
2022-09-26T20:40:18.187Z,20.30
2022-09-26T20:42:51.171Z,19.70
2022-09-26T20:45:25.937Z,20.00
2022-09-26T20:47:53.891Z,19.00
2022-09-26T20:50:22.085Z,19.70
2022-09-26T20:52:50.124Z,20.40
2022-09-26T20:55:19.501Z,20.60
2022-09-26T20:57:48.438Z,20.50
2022-09-26T21:00:20.967Z,20.40
2022-09-26T21:02:56.078Z,18.60
2022-09-26T21:05:27.455Z,18.60
2022-09-26T21:07:58.816Z,19.90
2022-09-26T21:10:33.128Z,19.70
2022-09-26T21:13:01.559Z,19.30
2022-09-26T21:15:32.087Z,19.30
2022-09-26T21:18:01.580Z,18.50
2022-09-26T21:20:33.210Z,19.90
2022-09-26T21:23:18.127Z,18.80
2022-09-26T21:25:46.117Z,19.10
2022-09-26T21:28:28.331Z,18.40
2022-09-26T21:31:05.607Z,17.20
2022-09-26T21:33:33.806Z,16.40
2022-09-26T21:36:02.126Z,15.60
2022-09-26T21:38:30.251Z,17.20
2022-09-26T21:41:00.776Z,14.50
2022-09-26T21:43:36.334Z,13.90
2022-09-26T21:46:05.877Z,14.00
2022-09-26T21:48:34.909Z,13.80
2022-09-26T21:51:04.157Z,12.50
2022-09-26T21:53:40.385Z,11.40
2022-09-26T21:56:15.645Z,8.60
2022-09-26T21:58:44.904Z,6.90
2022-09-26T22:01:14.473Z,8.80
2022-09-26T22:03:42.525Z,8.80
2022-09-26T22:06:10.678Z,8.10
2022-09-26T22:08:39.993Z,7.80
2022-09-26T22:11:09.250Z,6.50
2022-09-26T22:13:38.133Z,5.70
2022-09-26T22:16:12.623Z,6.30
2022-09-26T22:18:41.462Z,5.90
2022-09-26T22:21:11.167Z,5.80
2022-09-26T22:23:39.181Z,5.70
2022-09-26T22:26:07.771Z,5.60
2022-09-26T22:28:36.478Z,5.00
2022-09-26T22:31:05.366Z,6.30
2022-09-26T22:33:34.220Z,5.70
2022-09-26T22:36:02.749Z,5.30
2022-09-26T22:38:32.242Z,6.10
2022-09-26T22:41:03.257Z,6.10
2022-09-26T22:43:33.246Z,6.80
2022-09-26T22:46:11.313Z,6.70
2022-09-26T22:48:42.476Z,6.70
2022-09-26T22:51:10.604Z,6.50
2022-09-26T22:53:40.603Z,6.80
2022-09-26T22:56:12.058Z,6.70
2022-09-26T22:58:44.655Z,6.90
2022-09-26T23:01:15.315Z,6.70
2022-09-26T23:03:43.477Z,6.30
2022-09-26T23:06:12.195Z,7.00
2022-09-26T23:08:40.242Z,8.10
2022-09-26T23:11:11.669Z,7.60
2022-09-26T23:13:39.741Z,9.10
2022-09-26T23:16:10.582Z,9.30
2022-09-26T23:18:41.479Z,11.90
2022-09-26T23:21:10.620Z,14.20
2022-09-26T23:23:39.584Z,15.20
2022-09-26T23:26:08.273Z,16.30
2022-09-26T23:28:36.346Z,16.20
2022-09-26T23:31:06.915Z,17.80
2022-09-26T23:33:36.426Z,17.60
2022-09-26T23:36:06.164Z,18.30
2022-09-26T23:38:35.744Z,18.80
2022-09-26T23:41:05.781Z,19.70
2022-09-26T23:43:34.177Z,20.10
2022-09-26T23:46:02.164Z,20.50
2022-09-26T23:48:30.188Z,18.80
2022-09-26T23:50:58.543Z,19.00
2022-09-26T23:53:27.041Z,19.60
2022-09-26T23:56:06.929Z,18.60
2022-09-26T23:58:35.615Z,18.60
